sensor_id;sensor_type;location;lat;lon;timestamp;temperature;humidity
41262;DHT22;29629;52.532;13.352;2023-08-08T00:01:21;14.70;99.90
41262;DHT22;29629;52.532;13.352;2023-08-08T00:03:48;14.70;99.90
41262;DHT22;29629;52.532;13.352;2023-08-08T00:06:15;14.70;99.90
41262;DHT22;29629;52.532;13.352;2023-08-08T00:08:42;14.70;99.90
41262;DHT22;29629;52.532;13.352;2023-08-08T00:11:09;14.60;99.90
41262;DHT22;29629;52.532;13.352;2023-08-08T00:13:37;14.60;99.90
41262;DHT22;29629;52.532;13.352;2023-08-08T00:16:04;14.60;99.90
41262;DHT22;29629;52.532;13.352;2023-08-08T00:18:31;14.60;99.90
41262;DHT22;29629;52.532;13.352;2023-08-08T00:20:58;14.50;99.90
41262;DHT22;29629;52.532;13.352;2023-08-08T00:23:25;14.50;99.90
41262;DHT22;29629;52.532;13.352;2023-08-08T00:25:52;14.50;99.90
41262;DHT22;29629;52.532;13.352;2023-08-08T00:28:19;14.50;99.90
41262;DHT22;29629;52.532;13.352;2023-08-08T00:30:47;14.50;99.90
41262;DHT22;29629;52.532;13.352;2023-08-08T00:33:15;14.40;99.90
41262;DHT22;29629;52.532;13.352;2023-08-08T00:35:42;14.40;99.90
41262;DHT22;29629;52.532;13.352;2023-08-08T00:38:10;14.30;99.90
41262;DHT22;29629;52.532;13.352;2023-08-08T00:40:37;14.30;99.90
41262;DHT22;29629;52.532;13.352;2023-08-08T00:43:04;14.40;99.90
41262;DHT22;29629;52.532;13.352;2023-08-08T00:45:31;14.30;99.90
41262;DHT22;29629;52.532;13.352;2023-08-08T00:47:59;14.30;99.90
41262;DHT22;29629;52.532;13.352;2023-08-08T00:50:26;14.30;99.90
41262;DHT22;29629;52.532;13.352;2023-08-08T00:52:53;14.30;99.90
41262;DHT22;29629;52.532;13.352;2023-08-08T00:55:21;14.20;99.90
41262;DHT22;29629;52.532;13.352;2023-08-08T00:57:48;14.20;99.90
41262;DHT22;29629;52.532;13.352;2023-08-08T01:00:15;14.20;99.90
41262;DHT22;29629;52.532;13.352;2023-08-08T01:02:42;14.10;99.90
41262;DHT22;29629;52.532;13.352;2023-08-08T01:05:10;14.10;99.90
41262;DHT22;29629;52.532;13.352;2023-08-08T01:07:41;14.20;99.90
41262;DHT22;29629;52.532;13.352;2023-08-08T01:10:13;14.10;99.90
41262;DHT22;29629;52.532;13.352;2023-08-08T01:12:43;14.10;99.90
41262;DHT22;29629;52.532;13.352;2023-08-08T01:15:11;14.10;99.90
41262;DHT22;29629;52.532;13.352;2023-08-08T01:17:39;14.00;99.90
41262;DHT22;29629;52.532;13.352;2023-08-08T01:20:07;14.00;99.90
41262;DHT22;29629;52.532;13.352;2023-08-08T01:22:39;14.00;99.90
41262;DHT22;29629;52.532;13.352;2023-08-08T01:25:11;14.00;99.90
41262;DHT22;29629;52.532;13.352;2023-08-08T01:27:38;14.00;99.90
41262;DHT22;29629;52.532;13.352;2023-08-08T01:30:07;13.90;99.90
41262;DHT22;29629;52.532;13.352;2023-08-08T01:32:34;13.80;99.90
41262;DHT22;29629;52.532;13.352;2023-08-08T01:35:01;13.80;99.90
41262;DHT22;29629;52.532;13.352;2023-08-08T01:37:31;13.80;99.90
41262;DHT22;29629;52.532;13.352;2023-08-08T01:40:00;13.80;99.90
41262;DHT22;29629;52.532;13.352;2023-08-08T01:42:30;13.80;99.90
41262;DHT22;29629;52.532;13.352;2023-08-08T01:44:57;13.70;99.90
41262;DHT22;29629;52.532;13.352;2023-08-08T01:47:25;13.80;99.90
41262;DHT22;29629;52.532;13.352;2023-08-08T01:49:52;13.80;99.90
41262;DHT22;29629;52.532;13.352;2023-08-08T01:52:19;13.80;99.90
41262;DHT22;29629;52.532;13.352;2023-08-08T01:54:48;13.80;99.90
41262;DHT22;29629;52.532;13.352;2023-08-08T01:57:15;13.80;99.90
41262;DHT22;29629;52.532;13.352;2023-08-08T01:59:44;13.80;99.90
41262;DHT22;29629;52.532;13.352;2023-08-08T02:02:11;13.80;99.90
41262;DHT22;29629;52.532;13.352;2023-08-08T02:04:38;13.80;99.90
41262;DHT22;29629;52.532;13.352;2023-08-08T02:07:05;13.90;99.90
41262;DHT22;29629;52.532;13.352;2023-08-08T02:09:32;13.80;99.90
41262;DHT22;29629;52.532;13.352;2023-08-08T02:11:59;13.80;99.90
41262;DHT22;29629;52.532;13.352;2023-08-08T02:14:26;13.80;99.90
41262;DHT22;29629;52.532;13.352;2023-08-08T02:16:54;13.80;99.90
41262;DHT22;29629;52.532;13.352;2023-08-08T02:19:21;13.80;99.90
41262;DHT22;29629;52.532;13.352;2023-08-08T02:21:48;13.70;99.90
41262;DHT22;29629;52.532;13.352;2023-08-08T02:24:15;13.80;99.90
41262;DHT22;29629;52.532;13.352;2023-08-08T02:26:42;13.80;99.90
41262;DHT22;29629;52.532;13.352;2023-08-08T02:29:09;13.80;99.90
41262;DHT22;29629;52.532;13.352;2023-08-08T02:31:36;13.80;99.90
41262;DHT22;29629;52.532;13.352;2023-08-08T02:34:04;13.80;99.90
41262;DHT22;29629;52.532;13.352;2023-08-08T02:36:31;13.80;99.90
41262;DHT22;29629;52.532;13.352;2023-08-08T02:38:58;13.80;99.90
41262;DHT22;29629;52.532;13.352;2023-08-08T02:41:25;13.70;99.90
41262;DHT22;29629;52.532;13.352;2023-08-08T02:43:52;13.70;99.90
41262;DHT22;29629;52.532;13.352;2023-08-08T02:46:19;13.70;99.90
41262;DHT22;29629;52.532;13.352;2023-08-08T02:48:46;13.60;99.90
41262;DHT22;29629;52.532;13.352;2023-08-08T02:51:15;13.50;99.90
41262;DHT22;29629;52.532;13.352;2023-08-08T02:53:42;13.50;99.90
41262;DHT22;29629;52.532;13.352;2023-08-08T02:56:09;13.50;99.90
41262;DHT22;29629;52.532;13.352;2023-08-08T02:58:35;13.50;99.90
41262;DHT22;29629;52.532;13.352;2023-08-08T03:01:02;13.50;99.90
41262;DHT22;29629;52.532;13.352;2023-08-08T03:03:29;13.50;99.90
41262;DHT22;29629;52.532;13.352;2023-08-08T03:05:56;13.50;99.90
41262;DHT22;29629;52.532;13.352;2023-08-08T03:08:24;13.40;99.90
41262;DHT22;29629;52.532;13.352;2023-08-08T03:10:53;13.50;99.90
41262;DHT22;29629;52.532;13.352;2023-08-08T03:13:20;13.40;99.90
41262;DHT22;29629;52.532;13.352;2023-08-08T03:15:48;13.40;99.90
41262;DHT22;29629;52.532;13.352;2023-08-08T03:18:14;13.40;99.90
41262;DHT22;29629;52.532;13.352;2023-08-08T03:20:41;13.30;99.90
41262;DHT22;29629;52.532;13.352;2023-08-08T03:23:08;13.40;99.90
41262;DHT22;29629;52.532;13.352;2023-08-08T03:25:37;13.40;99.90
41262;DHT22;29629;52.532;13.352;2023-08-08T03:28:04;13.40;99.90
41262;DHT22;29629;52.532;13.352;2023-08-08T03:30:31;13.40;99.90
41262;DHT22;29629;52.532;13.352;2023-08-08T03:32:58;13.40;99.90
41262;DHT22;29629;52.532;13.352;2023-08-08T03:35:25;13.30;99.90
41262;DHT22;29629;52.532;13.352;2023-08-08T03:37:52;13.30;99.90
41262;DHT22;29629;52.532;13.352;2023-08-08T03:40:19;13.20;99.90
41262;DHT22;29629;52.532;13.352;2023-08-08T03:42:48;13.30;99.90
41262;DHT22;29629;52.532;13.352;2023-08-08T03:45:14;13.40;99.90
41262;DHT22;29629;52.532;13.352;2023-08-08T03:47:41;13.40;99.90
41262;DHT22;29629;52.532;13.352;2023-08-08T03:50:09;13.40;99.90
41262;DHT22;29629;52.532;13.352;2023-08-08T03:52:36;13.40;99.90
41262;DHT22;29629;52.532;13.352;2023-08-08T03:55:04;13.50;99.90
41262;DHT22;29629;52.532;13.352;2023-08-08T03:57:31;13.40;99.90
41262;DHT22;29629;52.532;13.352;2023-08-08T04:00:00;13.40;99.90
41262;DHT22;29629;52.532;13.352;2023-08-08T04:02:27;13.50;99.90
41262;DHT22;29629;52.532;13.352;2023-08-08T04:04:54;13.60;99.90
41262;DHT22;29629;52.532;13.352;2023-08-08T04:07:21;13.60;99.90
41262;DHT22;29629;52.532;13.352;2023-08-08T04:09:48;13.60;99.90
41262;DHT22;29629;52.532;13.352;2023-08-08T04:12:15;13.60;99.90
41262;DHT22;29629;52.532;13.352;2023-08-08T04:14:42;13.70;99.90
41262;DHT22;29629;52.532;13.352;2023-08-08T04:17:10;13.60;99.90
41262;DHT22;29629;52.532;13.352;2023-08-08T04:19:37;13.70;99.90
41262;DHT22;29629;52.532;13.352;2023-08-08T04:22:04;13.80;99.90
41262;DHT22;29629;52.532;13.352;2023-08-08T04:24:31;13.80;99.90
41262;DHT22;29629;52.532;13.352;2023-08-08T04:26:58;13.70;99.90
41262;DHT22;29629;52.532;13.352;2023-08-08T04:29:25;13.70;99.90
41262;DHT22;29629;52.532;13.352;2023-08-08T04:31:52;13.70;99.90
41262;DHT22;29629;52.532;13.352;2023-08-08T04:34:20;13.70;99.90
41262;DHT22;29629;52.532;13.352;2023-08-08T04:36:47;13.70;99.90
41262;DHT22;29629;52.532;13.352;2023-08-08T04:39:14;13.80;99.90
41262;DHT22;29629;52.532;13.352;2023-08-08T04:41:40;13.70;99.90
41262;DHT22;29629;52.532;13.352;2023-08-08T04:44:07;13.80;99.90
41262;DHT22;29629;52.532;13.352;2023-08-08T04:46:34;13.90;99.90
41262;DHT22;29629;52.532;13.352;2023-08-08T04:49:01;14.00;99.90
41262;DHT22;29629;52.532;13.352;2023-08-08T04:51:30;14.10;99.90
41262;DHT22;29629;52.532;13.352;2023-08-08T04:53:57;14.10;99.90
41262;DHT22;29629;52.532;13.352;2023-08-08T04:56:23;14.20;99.90
41262;DHT22;29629;52.532;13.352;2023-08-08T04:58:50;14.10;99.90
41262;DHT22;29629;52.532;13.352;2023-08-08T05:01:17;14.20;99.90
41262;DHT22;29629;52.532;13.352;2023-08-08T05:03:46;14.20;99.90
41262;DHT22;29629;52.532;13.352;2023-08-08T05:06:13;14.40;99.90
41262;DHT22;29629;52.532;13.352;2023-08-08T05:08:41;14.30;99.90
41262;DHT22;29629;52.532;13.352;2023-08-08T05:11:08;14.30;99.90
41262;DHT22;29629;52.532;13.352;2023-08-08T05:13:35;14.20;99.90
41262;DHT22;29629;52.532;13.352;2023-08-08T05:16:02;14.20;99.90
41262;DHT22;29629;52.532;13.352;2023-08-08T05:18:29;14.20;99.90
41262;DHT22;29629;52.532;13.352;2023-08-08T05:20:56;14.30;99.90
41262;DHT22;29629;52.532;13.352;2023-08-08T05:23:23;14.40;99.90
41262;DHT22;29629;52.532;13.352;2023-08-08T05:25:51;14.40;99.90
41262;DHT22;29629;52.532;13.352;2023-08-08T05:28:18;14.30;99.90
41262;DHT22;29629;52.532;13.352;2023-08-08T05:30:46;14.50;99.90
41262;DHT22;29629;52.532;13.352;2023-08-08T05:33:13;14.60;99.90
41262;DHT22;29629;52.532;13.352;2023-08-08T05:35:40;14.60;99.90
41262;DHT22;29629;52.532;13.352;2023-08-08T05:38:07;14.80;99.90
41262;DHT22;29629;52.532;13.352;2023-08-08T05:40:34;15.00;99.90
41262;DHT22;29629;52.532;13.352;2023-08-08T05:43:03;15.00;99.90
41262;DHT22;29629;52.532;13.352;2023-08-08T05:45:30;15.20;99.90
41262;DHT22;29629;52.532;13.352;2023-08-08T05:47:58;15.30;99.90
41262;DHT22;29629;52.532;13.352;2023-08-08T05:50:26;15.40;99.90
41262;DHT22;29629;52.532;13.352;2023-08-08T05:52:53;15.40;99.90
41262;DHT22;29629;52.532;13.352;2023-08-08T05:55:20;15.30;99.90
41262;DHT22;29629;52.532;13.352;2023-08-08T05:57:47;15.30;99.90
41262;DHT22;29629;52.532;13.352;2023-08-08T06:00:16;15.20;99.90
41262;DHT22;29629;52.532;13.352;2023-08-08T06:02:43;15.20;99.90
41262;DHT22;29629;52.532;13.352;2023-08-08T06:05:11;15.40;99.90
41262;DHT22;29629;52.532;13.352;2023-08-08T06:07:38;15.40;99.90
41262;DHT22;29629;52.532;13.352;2023-08-08T06:10:06;15.60;99.90
41262;DHT22;29629;52.532;13.352;2023-08-08T06:12:34;15.80;99.90
41262;DHT22;29629;52.532;13.352;2023-08-08T06:15:01;15.70;99.90
41262;DHT22;29629;52.532;13.352;2023-08-08T06:17:30;15.70;99.90
41262;DHT22;29629;52.532;13.352;2023-08-08T06:19:57;15.80;99.90
41262;DHT22;29629;52.532;13.352;2023-08-08T06:22:24;15.90;99.90
41262;DHT22;29629;52.532;13.352;2023-08-08T06:24:51;16.00;99.90
41262;DHT22;29629;52.532;13.352;2023-08-08T06:27:18;16.00;99.90
41262;DHT22;29629;52.532;13.352;2023-08-08T06:29:45;16.30;99.90
41262;DHT22;29629;52.532;13.352;2023-08-08T06:32:12;16.50;99.90
41262;DHT22;29629;52.532;13.352;2023-08-08T06:34:40;16.30;99.90
41262;DHT22;29629;52.532;13.352;2023-08-08T06:37:07;16.30;99.90
41262;DHT22;29629;52.532;13.352;2023-08-08T06:39:34;16.20;99.90
41262;DHT22;29629;52.532;13.352;2023-08-08T06:42:04;16.10;99.90
41262;DHT22;29629;52.532;13.352;2023-08-08T06:44:32;16.10;99.90
41262;DHT22;29629;52.532;13.352;2023-08-08T06:46:59;16.10;99.90
41262;DHT22;29629;52.532;13.352;2023-08-08T06:49:26;16.10;99.90
41262;DHT22;29629;52.532;13.352;2023-08-08T06:51:54;16.00;99.90
41262;DHT22;29629;52.532;13.352;2023-08-08T06:54:21;15.90;99.90
41262;DHT22;29629;52.532;13.352;2023-08-08T06:56:48;15.90;99.90
41262;DHT22;29629;52.532;13.352;2023-08-08T06:59:15;16.10;99.90
41262;DHT22;29629;52.532;13.352;2023-08-08T07:01:42;16.10;99.90
41262;DHT22;29629;52.532;13.352;2023-08-08T07:04:09;16.30;99.90
41262;DHT22;29629;52.532;13.352;2023-08-08T07:06:36;16.30;99.90
41262;DHT22;29629;52.532;13.352;2023-08-08T07:09:04;16.70;99.90
41262;DHT22;29629;52.532;13.352;2023-08-08T07:11:31;16.70;99.90
41262;DHT22;29629;52.532;13.352;2023-08-08T07:13:58;16.90;99.90
41262;DHT22;29629;52.532;13.352;2023-08-08T07:16:25;17.00;99.90
41262;DHT22;29629;52.532;13.352;2023-08-08T07:18:52;17.00;99.90
41262;DHT22;29629;52.532;13.352;2023-08-08T07:21:19;16.90;99.90
41262;DHT22;29629;52.532;13.352;2023-08-08T07:23:46;16.90;99.90
41262;DHT22;29629;52.532;13.352;2023-08-08T07:26:14;16.90;99.90
41262;DHT22;29629;52.532;13.352;2023-08-08T07:28:41;16.70;99.90
41262;DHT22;29629;52.532;13.352;2023-08-08T07:31:08;16.80;99.90
41262;DHT22;29629;52.532;13.352;2023-08-08T07:33:35;16.60;99.90
41262;DHT22;29629;52.532;13.352;2023-08-08T07:36:02;16.50;99.90
41262;DHT22;29629;52.532;13.352;2023-08-08T07:38:29;16.70;99.90
41262;DHT22;29629;52.532;13.352;2023-08-08T07:40:56;16.90;99.90
41262;DHT22;29629;52.532;13.352;2023-08-08T07:43:24;17.50;99.90
41262;DHT22;29629;52.532;13.352;2023-08-08T07:45:52;17.80;99.90
41262;DHT22;29629;52.532;13.352;2023-08-08T07:48:19;17.80;99.90
41262;DHT22;29629;52.532;13.352;2023-08-08T07:50:46;17.80;99.90
41262;DHT22;29629;52.532;13.352;2023-08-08T07:53:13;17.60;99.90
41262;DHT22;29629;52.532;13.352;2023-08-08T07:55:40;17.20;99.90
41262;DHT22;29629;52.532;13.352;2023-08-08T07:58:06;17.30;99.90
41262;DHT22;29629;52.532;13.352;2023-08-08T08:00:35;17.30;99.90
41262;DHT22;29629;52.532;13.352;2023-08-08T08:03:04;17.40;99.90
41262;DHT22;29629;52.532;13.352;2023-08-08T08:05:31;17.70;99.90
41262;DHT22;29629;52.532;13.352;2023-08-08T08:08:00;18.00;99.90
41262;DHT22;29629;52.532;13.352;2023-08-08T08:10:27;18.20;99.90
41262;DHT22;29629;52.532;13.352;2023-08-08T08:12:54;18.10;99.90
41262;DHT22;29629;52.532;13.352;2023-08-08T08:15:23;17.90;99.90
41262;DHT22;29629;52.532;13.352;2023-08-08T08:17:52;18.50;99.90
41262;DHT22;29629;52.532;13.352;2023-08-08T08:20:19;18.60;99.90
41262;DHT22;29629;52.532;13.352;2023-08-08T08:22:45;18.60;99.90
41262;DHT22;29629;52.532;13.352;2023-08-08T08:25:13;18.70;99.90
41262;DHT22;29629;52.532;13.352;2023-08-08T08:27:40;18.20;99.90
41262;DHT22;29629;52.532;13.352;2023-08-08T08:30:08;18.40;99.90
41262;DHT22;29629;52.532;13.352;2023-08-08T08:32:36;18.60;99.90
41262;DHT22;29629;52.532;13.352;2023-08-08T08:35:06;18.80;99.90
41262;DHT22;29629;52.532;13.352;2023-08-08T08:37:34;19.00;99.90
41262;DHT22;29629;52.532;13.352;2023-08-08T08:40:01;18.60;99.90
41262;DHT22;29629;52.532;13.352;2023-08-08T08:42:31;18.80;99.90
41262;DHT22;29629;52.532;13.352;2023-08-08T08:44:59;18.60;99.90
41262;DHT22;29629;52.532;13.352;2023-08-08T08:47:30;18.50;99.90
41262;DHT22;29629;52.532;13.352;2023-08-08T08:49:58;18.20;99.90
41262;DHT22;29629;52.532;13.352;2023-08-08T08:52:28;18.30;99.90
41262;DHT22;29629;52.532;13.352;2023-08-08T08:54:55;18.60;99.90
41262;DHT22;29629;52.532;13.352;2023-08-08T08:57:23;19.00;99.90
41262;DHT22;29629;52.532;13.352;2023-08-08T08:59:50;19.10;99.90
41262;DHT22;29629;52.532;13.352;2023-08-08T09:02:18;19.20;99.90
41262;DHT22;29629;52.532;13.352;2023-08-08T09:04:45;18.90;99.90
41262;DHT22;29629;52.532;13.352;2023-08-08T09:07:16;18.90;99.90
41262;DHT22;29629;52.532;13.352;2023-08-08T09:09:49;19.20;99.90
41262;DHT22;29629;52.532;13.352;2023-08-08T09:12:16;20.00;99.90
41262;DHT22;29629;52.532;13.352;2023-08-08T09:14:43;20.30;99.90
41262;DHT22;29629;52.532;13.352;2023-08-08T09:17:12;19.90;99.90
41262;DHT22;29629;52.532;13.352;2023-08-08T09:19:42;19.50;99.90
41262;DHT22;29629;52.532;13.352;2023-08-08T09:22:09;19.10;99.90
41262;DHT22;29629;52.532;13.352;2023-08-08T09:24:38;19.00;99.90
41262;DHT22;29629;52.532;13.352;2023-08-08T09:27:08;19.30;99.90
41262;DHT22;29629;52.532;13.352;2023-08-08T09:29:36;18.90;99.90
41262;DHT22;29629;52.532;13.352;2023-08-08T09:32:04;19.20;99.90
41262;DHT22;29629;52.532;13.352;2023-08-08T09:34:31;19.40;99.90
41262;DHT22;29629;52.532;13.352;2023-08-08T09:36:58;19.20;99.90
41262;DHT22;29629;52.532;13.352;2023-08-08T09:39:25;19.50;99.90
41262;DHT22;29629;52.532;13.352;2023-08-08T09:41:52;19.50;99.90
41262;DHT22;29629;52.532;13.352;2023-08-08T09:44:24;19.50;99.90
41262;DHT22;29629;52.532;13.352;2023-08-08T09:46:52;21.60;99.90
41262;DHT22;29629;52.532;13.352;2023-08-08T09:49:19;20.70;99.90
41262;DHT22;29629;52.532;13.352;2023-08-08T09:51:48;21.10;99.90
41262;DHT22;29629;52.532;13.352;2023-08-08T09:54:16;20.20;99.90
41262;DHT22;29629;52.532;13.352;2023-08-08T09:56:43;19.40;99.90
41262;DHT22;29629;52.532;13.352;2023-08-08T09:59:10;19.00;99.90
41262;DHT22;29629;52.532;13.352;2023-08-08T10:01:40;18.00;99.90
41262;DHT22;29629;52.532;13.352;2023-08-08T10:04:08;17.80;99.90
41262;DHT22;29629;52.532;13.352;2023-08-08T10:06:35;16.10;99.90
41262;DHT22;29629;52.532;13.352;2023-08-08T10:09:02;16.10;99.90
41262;DHT22;29629;52.532;13.352;2023-08-08T10:11:31;16.70;99.90
41262;DHT22;29629;52.532;13.352;2023-08-08T10:14:02;17.40;99.90
41262;DHT22;29629;52.532;13.352;2023-08-08T10:16:32;17.60;99.90
41262;DHT22;29629;52.532;13.352;2023-08-08T10:19:01;17.20;99.90
41262;DHT22;29629;52.532;13.352;2023-08-08T10:21:33;17.20;99.90
41262;DHT22;29629;52.532;13.352;2023-08-08T10:24:04;17.30;99.90
41262;DHT22;29629;52.532;13.352;2023-08-08T10:26:31;17.60;99.90
41262;DHT22;29629;52.532;13.352;2023-08-08T10:29:00;19.80;99.90
41262;DHT22;29629;52.532;13.352;2023-08-08T10:31:32;20.80;99.90
41262;DHT22;29629;52.532;13.352;2023-08-08T10:34:05;21.40;99.90
41262;DHT22;29629;52.532;13.352;2023-08-08T10:36:49;22.10;99.90
41262;DHT22;29629;52.532;13.352;2023-08-08T10:39:17;21.80;99.90
41262;DHT22;29629;52.532;13.352;2023-08-08T10:41:48;20.50;99.90
41262;DHT22;29629;52.532;13.352;2023-08-08T10:44:22;19.70;99.90
41262;DHT22;29629;52.532;13.352;2023-08-08T10:46:51;19.20;99.90
41262;DHT22;29629;52.532;13.352;2023-08-08T10:49:19;18.50;99.90
41262;DHT22;29629;52.532;13.352;2023-08-08T10:51:48;18.20;99.90
41262;DHT22;29629;52.532;13.352;2023-08-08T10:54:17;18.10;99.90
41262;DHT22;29629;52.532;13.352;2023-08-08T10:56:48;18.20;99.90
41262;DHT22;29629;52.532;13.352;2023-08-08T10:59:18;18.80;99.90
41262;DHT22;29629;52.532;13.352;2023-08-08T11:01:46;19.20;99.90
41262;DHT22;29629;52.532;13.352;2023-08-08T11:04:16;20.10;99.90
41262;DHT22;29629;52.532;13.352;2023-08-08T11:06:46;21.20;99.90
41262;DHT22;29629;52.532;13.352;2023-08-08T11:09:15;21.90;99.90
41262;DHT22;29629;52.532;13.352;2023-08-08T11:11:43;22.10;99.90
41262;DHT22;29629;52.532;13.352;2023-08-08T11:14:12;22.60;99.90
41262;DHT22;29629;52.532;13.352;2023-08-08T11:16:39;24.30;99.90
41262;DHT22;29629;52.532;13.352;2023-08-08T11:19:07;24.00;99.90
41262;DHT22;29629;52.532;13.352;2023-08-08T11:21:35;24.00;99.90
41262;DHT22;29629;52.532;13.352;2023-08-08T11:24:05;23.00;99.90
41262;DHT22;29629;52.532;13.352;2023-08-08T11:26:33;21.40;99.90
41262;DHT22;29629;52.532;13.352;2023-08-08T11:29:01;20.50;99.90
41262;DHT22;29629;52.532;13.352;2023-08-08T11:31:28;20.10;99.90
41262;DHT22;29629;52.532;13.352;2023-08-08T11:33:56;20.10;99.90
41262;DHT22;29629;52.532;13.352;2023-08-08T11:36:23;19.30;99.90
41262;DHT22;29629;52.532;13.352;2023-08-08T11:38:50;18.90;99.90
41262;DHT22;29629;52.532;13.352;2023-08-08T11:41:21;19.10;99.90
41262;DHT22;29629;52.532;13.352;2023-08-08T11:43:50;18.90;99.90
41262;DHT22;29629;52.532;13.352;2023-08-08T11:46:17;18.80;99.90
41262;DHT22;29629;52.532;13.352;2023-08-08T11:48:46;20.30;99.90
41262;DHT22;29629;52.532;13.352;2023-08-08T11:51:15;20.20;99.90
41262;DHT22;29629;52.532;13.352;2023-08-08T11:53:50;20.00;99.90
41262;DHT22;29629;52.532;13.352;2023-08-08T11:56:19;21.70;99.90
41262;DHT22;29629;52.532;13.352;2023-08-08T11:58:49;22.30;99.90
41262;DHT22;29629;52.532;13.352;2023-08-08T12:01:16;23.80;99.90
41262;DHT22;29629;52.532;13.352;2023-08-08T12:03:43;23.70;99.90
41262;DHT22;29629;52.532;13.352;2023-08-08T12:06:13;23.00;99.90
41262;DHT22;29629;52.532;13.352;2023-08-08T12:08:41;23.40;99.90
41262;DHT22;29629;52.532;13.352;2023-08-08T12:11:09;23.90;99.90
41262;DHT22;29629;52.532;13.352;2023-08-08T12:13:39;23.30;99.90
41262;DHT22;29629;52.532;13.352;2023-08-08T12:16:07;25.20;99.90
41262;DHT22;29629;52.532;13.352;2023-08-08T12:18:36;25.70;99.90
41262;DHT22;29629;52.532;13.352;2023-08-08T12:21:03;25.40;99.90
41262;DHT22;29629;52.532;13.352;2023-08-08T12:23:31;24.60;99.90
41262;DHT22;29629;52.532;13.352;2023-08-08T12:25:58;23.30;99.90
41262;DHT22;29629;52.532;13.352;2023-08-08T12:28:25;25.00;99.90
41262;DHT22;29629;52.532;13.352;2023-08-08T12:30:54;24.10;99.90
41262;DHT22;29629;52.532;13.352;2023-08-08T12:33:20;23.70;99.90
41262;DHT22;29629;52.532;13.352;2023-08-08T12:35:47;22.30;99.90
41262;DHT22;29629;52.532;13.352;2023-08-08T12:38:15;22.90;99.90
41262;DHT22;29629;52.532;13.352;2023-08-08T12:40:42;22.50;99.90
41262;DHT22;29629;52.532;13.352;2023-08-08T12:43:09;21.20;99.90
41262;DHT22;29629;52.532;13.352;2023-08-08T12:45:38;20.60;99.90
41262;DHT22;29629;52.532;13.352;2023-08-08T12:48:07;19.80;99.90
41262;DHT22;29629;52.532;13.352;2023-08-08T12:50:34;19.40;99.90
41262;DHT22;29629;52.532;13.352;2023-08-08T12:53:01;19.40;99.90
41262;DHT22;29629;52.532;13.352;2023-08-08T12:55:29;20.70;99.90
41262;DHT22;29629;52.532;13.352;2023-08-08T12:57:56;21.20;99.90
41262;DHT22;29629;52.532;13.352;2023-08-08T13:00:23;21.00;99.90
41262;DHT22;29629;52.532;13.352;2023-08-08T13:02:50;20.20;99.90
41262;DHT22;29629;52.532;13.352;2023-08-08T13:05:18;21.00;99.90
41262;DHT22;29629;52.532;13.352;2023-08-08T13:07:45;22.70;99.90
41262;DHT22;29629;52.532;13.352;2023-08-08T13:10:13;23.20;99.90
41262;DHT22;29629;52.532;13.352;2023-08-08T13:12:40;23.10;99.90
41262;DHT22;29629;52.532;13.352;2023-08-08T13:15:08;23.20;99.90
41262;DHT22;29629;52.532;13.352;2023-08-08T13:17:34;23.50;99.90
41262;DHT22;29629;52.532;13.352;2023-08-08T13:20:02;24.30;99.90
41262;DHT22;29629;52.532;13.352;2023-08-08T13:22:30;23.90;99.90
41262;DHT22;29629;52.532;13.352;2023-08-08T13:24:57;23.00;99.90
41262;DHT22;29629;52.532;13.352;2023-08-08T13:27:24;23.60;99.90
41262;DHT22;29629;52.532;13.352;2023-08-08T13:29:51;23.00;99.90
41262;DHT22;29629;52.532;13.352;2023-08-08T13:32:18;21.90;99.90
41262;DHT22;29629;52.532;13.352;2023-08-08T13:34:45;21.60;99.90
41262;DHT22;29629;52.532;13.352;2023-08-08T13:37:11;21.20;99.90
41262;DHT22;29629;52.532;13.352;2023-08-08T13:39:40;20.80;99.90
41262;DHT22;29629;52.532;13.352;2023-08-08T13:42:08;19.70;99.90
41262;DHT22;29629;52.532;13.352;2023-08-08T13:44:35;17.70;99.90
41262;DHT22;29629;52.532;13.352;2023-08-08T13:47:02;16.40;99.90
41262;DHT22;29629;52.532;13.352;2023-08-08T13:49:29;16.00;99.90
41262;DHT22;29629;52.532;13.352;2023-08-08T13:51:55;16.40;99.90
41262;DHT22;29629;52.532;13.352;2023-08-08T13:54:22;16.50;99.90
41262;DHT22;29629;52.532;13.352;2023-08-08T13:56:51;16.70;99.90
41262;DHT22;29629;52.532;13.352;2023-08-08T13:59:17;17.10;99.90
41262;DHT22;29629;52.532;13.352;2023-08-08T14:01:47;17.50;99.90
41262;DHT22;29629;52.532;13.352;2023-08-08T14:04:14;17.80;99.90
41262;DHT22;29629;52.532;13.352;2023-08-08T14:06:41;18.60;99.90
41262;DHT22;29629;52.532;13.352;2023-08-08T14:09:08;18.60;99.90
41262;DHT22;29629;52.532;13.352;2023-08-08T14:11:35;18.40;99.90
41262;DHT22;29629;52.532;13.352;2023-08-08T14:14:03;18.80;99.90
41262;DHT22;29629;52.532;13.352;2023-08-08T14:16:30;18.90;99.90
41262;DHT22;29629;52.532;13.352;2023-08-08T14:18:58;18.90;99.90
41262;DHT22;29629;52.532;13.352;2023-08-08T14:21:24;19.00;99.90
41262;DHT22;29629;52.532;13.352;2023-08-08T14:23:51;18.80;99.90
41262;DHT22;29629;52.532;13.352;2023-08-08T14:26:18;18.80;99.90
41262;DHT22;29629;52.532;13.352;2023-08-08T14:28:45;18.80;99.90
41262;DHT22;29629;52.532;13.352;2023-08-08T14:31:13;18.90;99.90
41262;DHT22;29629;52.532;13.352;2023-08-08T14:33:40;19.00;99.90
41262;DHT22;29629;52.532;13.352;2023-08-08T14:36:07;18.90;99.90
41262;DHT22;29629;52.532;13.352;2023-08-08T14:38:35;19.10;99.90
41262;DHT22;29629;52.532;13.352;2023-08-08T14:41:02;18.90;99.90
41262;DHT22;29629;52.532;13.352;2023-08-08T14:43:29;19.00;99.90
41262;DHT22;29629;52.532;13.352;2023-08-08T14:45:56;19.10;99.90
41262;DHT22;29629;52.532;13.352;2023-08-08T14:48:25;19.00;99.90
41262;DHT22;29629;52.532;13.352;2023-08-08T14:50:52;19.10;99.90
41262;DHT22;29629;52.532;13.352;2023-08-08T14:53:19;19.20;99.90
41262;DHT22;29629;52.532;13.352;2023-08-08T14:55:46;19.20;99.90
41262;DHT22;29629;52.532;13.352;2023-08-08T14:58:14;19.40;99.90
41262;DHT22;29629;52.532;13.352;2023-08-08T15:00:41;19.50;99.90
41262;DHT22;29629;52.532;13.352;2023-08-08T15:03:08;19.40;99.90
41262;DHT22;29629;52.532;13.352;2023-08-08T15:05:36;19.40;99.90
41262;DHT22;29629;52.532;13.352;2023-08-08T15:08:04;19.40;99.90
41262;DHT22;29629;52.532;13.352;2023-08-08T15:10:30;19.40;99.90
41262;DHT22;29629;52.532;13.352;2023-08-08T15:12:57;19.40;99.90
41262;DHT22;29629;52.532;13.352;2023-08-08T15:15:24;19.30;99.90
41262;DHT22;29629;52.532;13.352;2023-08-08T15:17:53;19.20;99.90